createdAt,value
2018-02-22T00:00:02.922Z,15.43
2018-02-22T00:02:30.478Z,14.53
2018-02-22T00:04:58.239Z,14.37
2018-02-22T00:07:25.811Z,13.27
2018-02-22T00:09:53.389Z,12.90
2018-02-22T00:12:21.005Z,12.90
2018-02-22T00:14:48.552Z,12.97
2018-02-22T00:17:16.120Z,12.60
2018-02-22T00:19:43.694Z,14.33
2018-02-22T00:22:18.235Z,12.23
2018-02-22T00:24:45.820Z,12.50
2018-02-22T00:27:13.381Z,13.77
2018-02-22T00:29:40.959Z,13.83
2018-02-22T00:32:08.603Z,14.20
2018-02-22T00:34:36.172Z,12.10
2018-02-22T00:37:03.737Z,13.87
2018-02-22T00:39:31.345Z,11.70
2018-02-22T00:41:58.920Z,12.80
2018-02-22T00:44:26.509Z,12.07
2018-02-22T00:46:54.147Z,12.00
2018-02-22T00:49:21.717Z,13.53
2018-02-22T00:51:49.276Z,15.30
2018-02-22T00:54:16.879Z,14.07
2018-02-22T00:56:44.448Z,15.27
2018-02-22T00:59:12.018Z,12.37
2018-02-22T01:01:39.618Z,13.57
2018-02-22T01:04:07.210Z,11.70
2018-02-22T01:06:34.757Z,10.93
2018-02-22T01:09:02.409Z,11.90
2018-02-22T01:11:29.966Z,11.30
2018-02-22T01:13:57.535Z,8.60
2018-02-22T01:16:25.144Z,11.50
2018-02-22T01:18:52.712Z,9.17
2018-02-22T01:21:20.304Z,11.50
2018-02-22T01:23:47.904Z,11.13
2018-02-22T01:26:15.483Z,11.23
2018-02-22T01:28:43.048Z,14.00
2018-02-22T01:31:10.669Z,11.60
2018-02-22T01:33:38.244Z,10.50
2018-02-22T01:36:05.806Z,5.67
2018-02-22T01:38:33.428Z,10.23
2018-02-22T01:41:01.018Z,11.13
2018-02-22T01:43:28.582Z,11.40
2018-02-22T01:45:56.197Z,11.70
2018-02-22T01:48:23.814Z,12.33
2018-02-22T01:50:51.436Z,13.53
2018-02-22T01:53:19.042Z,11.70
2018-02-22T01:55:46.713Z,13.63
2018-02-22T01:58:14.295Z,13.60
2018-02-22T02:00:41.899Z,14.57
2018-02-22T02:03:09.463Z,14.70
2018-02-22T02:05:37.026Z,13.97
2018-02-22T02:08:04.656Z,14.00
2018-02-22T02:10:32.231Z,14.30
2018-02-22T02:12:59.820Z,14.40
2018-02-22T02:15:27.614Z,13.00
2018-02-22T02:17:55.258Z,15.70
2018-02-22T02:20:22.941Z,15.60
2018-02-22T02:22:50.576Z,14.40
2018-02-22T02:25:18.256Z,13.13
2018-02-22T02:27:51.634Z,15.57
2018-02-22T02:30:19.199Z,15.03
2018-02-22T02:32:47.716Z,15.73
2018-02-22T02:35:15.316Z,15.77
2018-02-22T02:37:42.900Z,15.80
2018-02-22T02:40:10.462Z,14.90
2018-02-22T02:42:38.090Z,17.00
2018-02-22T02:45:05.672Z,16.93
2018-02-22T02:47:33.245Z,15.97
2018-02-22T02:50:00.904Z,16.73
2018-02-22T02:52:28.578Z,18.00
2018-02-22T02:54:56.151Z,17.10
2018-02-22T02:57:23.775Z,15.13
2018-02-22T02:59:51.389Z,15.07
2018-02-22T03:02:19.069Z,15.67
2018-02-22T03:04:46.887Z,15.67
2018-02-22T03:07:14.543Z,16.60
2018-02-22T03:09:42.209Z,14.63
2018-02-22T03:12:10.022Z,14.30
2018-02-22T03:14:37.584Z,12.93
2018-02-22T03:17:05.179Z,14.67
2018-02-22T03:19:32.813Z,12.93
2018-02-22T03:22:00.513Z,13.17
2018-02-22T03:24:28.195Z,13.50
2018-02-22T03:26:55.831Z,13.73
2018-02-22T03:29:23.505Z,13.73
2018-02-22T03:31:51.181Z,11.70
2018-02-22T03:34:18.845Z,13.20
2018-02-22T03:36:46.416Z,12.07
2018-02-22T03:39:13.987Z,12.73
2018-02-22T03:41:41.606Z,11.33
2018-02-22T03:44:09.176Z,12.90
2018-02-22T03:46:36.945Z,14.30
2018-02-22T03:49:04.539Z,12.93
2018-02-22T03:51:32.165Z,14.37
2018-02-22T03:53:59.757Z,12.67
2018-02-22T03:56:27.377Z,12.10
2018-02-22T03:58:54.951Z,13.80
2018-02-22T04:01:22.546Z,12.57
2018-02-22T04:03:50.155Z,12.00
2018-02-22T04:06:17.719Z,12.13
2018-02-22T04:08:45.287Z,11.63
2018-02-22T04:11:12.904Z,12.07
2018-02-22T04:13:40.481Z,12.40
2018-02-22T04:16:08.106Z,11.17
2018-02-22T04:18:35.703Z,11.90
2018-02-22T04:21:03.321Z,11.87
2018-02-22T04:23:30.904Z,10.67
2018-02-22T04:25:58.523Z,10.37
2018-02-22T04:28:26.225Z,11.00
2018-02-22T04:30:53.802Z,10.97
2018-02-22T04:33:21.411Z,10.23
2018-02-22T04:35:48.975Z,9.37
2018-02-22T04:38:16.543Z,9.77
2018-02-22T04:40:44.170Z,10.20
2018-02-22T04:43:11.851Z,9.93
2018-02-22T04:45:39.435Z,11.27
2018-02-22T04:48:07.027Z,9.43
2018-02-22T04:50:34.599Z,11.10
2018-02-22T04:53:02.178Z,9.00
2018-02-22T04:55:29.799Z,8.97
2018-02-22T04:57:57.431Z,10.67
2018-02-22T05:00:25.914Z,9.73
2018-02-22T05:02:53.529Z,10.13
2018-02-22T05:05:21.091Z,9.87
2018-02-22T05:07:48.660Z,8.40
2018-02-22T05:10:16.270Z,9.20
2018-02-22T05:12:43.883Z,7.37
2018-02-22T05:15:11.462Z,8.47
2018-02-22T05:17:39.067Z,8.10
2018-02-22T05:20:06.679Z,8.30
2018-02-22T05:22:34.258Z,8.70
2018-02-22T05:25:02.009Z,8.07
2018-02-22T05:27:29.576Z,7.10
2018-02-22T05:29:57.329Z,8.17
2018-02-22T05:32:24.943Z,6.17
2018-02-22T05:34:52.656Z,7.50
2018-02-22T05:37:20.313Z,6.40
2018-02-22T05:39:47.923Z,7.80
2018-02-22T05:42:15.490Z,5.90
2018-02-22T05:44:43.052Z,5.37
2018-02-22T05:47:10.652Z,6.40
2018-02-22T05:49:38.240Z,7.43
2018-02-22T05:52:05.809Z,5.40
2018-02-22T05:54:33.547Z,5.20
2018-02-22T05:57:01.136Z,5.40
2018-02-22T05:59:28.854Z,4.87
2018-02-22T06:01:56.459Z,7.40
2018-02-22T06:04:24.023Z,5.27
2018-02-22T06:06:51.579Z,6.00
2018-02-22T06:09:19.297Z,6.17
2018-02-22T06:11:46.869Z,6.77
2018-02-22T06:14:14.620Z,7.87
2018-02-22T06:16:42.296Z,8.03
2018-02-22T06:19:09.900Z,8.00
2018-02-22T06:21:37.460Z,8.90
2018-02-22T06:24:05.076Z,8.43
2018-02-22T06:26:32.654Z,8.87
2018-02-22T06:29:00.218Z,8.33
2018-02-22T06:31:27.828Z,9.33
2018-02-22T06:33:55.435Z,9.37
2018-02-22T06:36:23.030Z,11.00
2018-02-22T06:38:50.647Z,9.87
2018-02-22T06:41:18.211Z,9.40
2018-02-22T06:43:45.788Z,10.50
2018-02-22T06:46:13.408Z,9.20
2018-02-22T06:48:41.252Z,10.20
2018-02-22T06:51:08.830Z,7.53
2018-02-22T06:53:36.601Z,9.23
2018-02-22T06:56:04.173Z,10.23
2018-02-22T06:58:31.923Z,11.20
2018-02-22T07:00:59.527Z,10.80
2018-02-22T07:03:27.250Z,13.43
2018-02-22T07:05:54.927Z,15.67
2018-02-22T07:08:22.534Z,13.30
2018-02-22T07:10:50.198Z,16.43
2018-02-22T07:13:17.786Z,20.90
2018-02-22T07:15:45.393Z,31.80
2018-02-22T07:18:12.969Z,32.13
2018-02-22T07:20:40.548Z,26.47
2018-02-22T07:23:16.652Z,29.73
2018-02-22T07:25:35.788Z,34.77
2018-02-22T07:28:03.374Z,37.67
2018-02-22T07:30:30.977Z,41.90
2018-02-22T07:32:58.564Z,39.93
2018-02-22T07:35:26.135Z,45.70
2018-02-22T07:37:53.894Z,42.10
2018-02-22T07:40:21.478Z,38.33
2018-02-22T07:42:49.091Z,36.30
2018-02-22T07:45:16.712Z,40.37
2018-02-22T07:47:44.279Z,39.27
2018-02-22T07:50:11.840Z,46.80
2018-02-22T07:52:39.474Z,42.17
2018-02-22T07:55:07.050Z,41.87
2018-02-22T07:57:34.786Z,38.00
2018-02-22T08:00:02.414Z,34.90
2018-02-22T08:02:29.995Z,35.33
2018-02-22T08:04:57.584Z,38.60
2018-02-22T08:07:25.240Z,40.37
2018-02-22T08:09:52.812Z,38.30
2018-02-22T08:12:20.390Z,39.47
2018-02-22T08:14:47.995Z,37.07
2018-02-22T08:17:15.578Z,37.90
2018-02-22T08:19:43.344Z,34.70
2018-02-22T08:22:11.021Z,33.80
2018-02-22T08:24:38.619Z,30.60
2018-02-22T08:27:06.199Z,33.50
2018-02-22T08:29:33.802Z,31.47
2018-02-22T08:32:01.451Z,29.00
2018-02-22T08:34:29.113Z,25.87
2018-02-22T08:36:56.749Z,27.83
2018-02-22T08:39:24.324Z,35.23
2018-02-22T08:41:51.903Z,28.80
2018-02-22T08:44:19.555Z,28.40
2018-02-22T08:46:47.139Z,30.00
2018-02-22T08:49:14.722Z,26.50
2018-02-22T08:51:42.355Z,23.50
2018-02-22T08:54:09.931Z,25.13
2018-02-22T08:56:37.512Z,22.47
2018-02-22T08:59:05.134Z,23.30
2018-02-22T09:01:32.788Z,30.67
2018-02-22T09:04:00.356Z,31.30
2018-02-22T09:06:27.953Z,30.20
2018-02-22T09:08:55.544Z,29.20
2018-02-22T09:11:23.129Z,26.53
2018-02-22T09:13:50.765Z,28.90
2018-02-22T09:16:18.381Z,28.90
2018-02-22T09:18:45.952Z,34.20
2018-02-22T09:21:13.551Z,31.00
2018-02-22T09:23:41.233Z,32.60
2018-02-22T09:26:08.801Z,31.50
2018-02-22T09:28:36.429Z,32.37
2018-02-22T09:31:04.222Z,37.90
2018-02-22T09:33:31.792Z,34.00
2018-02-22T09:35:59.410Z,36.80
2018-02-22T09:38:27.203Z,35.40
2018-02-22T09:40:54.870Z,36.30
2018-02-22T09:43:22.494Z,42.70
2018-02-22T09:45:50.077Z,39.13
2018-02-22T09:48:17.634Z,40.90
2018-02-22T09:50:45.324Z,38.93
2018-02-22T09:53:12.894Z,38.47
2018-02-22T09:55:40.471Z,36.60
2018-02-22T09:58:08.292Z,35.80
2018-02-22T10:00:35.860Z,35.17
2018-02-22T10:03:03.628Z,34.63
2018-02-22T10:05:31.264Z,30.40
2018-02-22T10:07:58.845Z,35.93
2018-02-22T10:10:26.422Z,31.97
2018-02-22T10:12:54.070Z,37.13
2018-02-22T10:15:21.644Z,39.60
2018-02-22T10:17:49.219Z,32.27
2018-02-22T10:20:16.824Z,33.67
2018-02-22T10:22:44.515Z,34.23
2018-02-22T10:25:12.084Z,33.53
2018-02-22T10:27:39.730Z,41.07
2018-02-22T10:30:07.308Z,35.70
2018-02-22T10:32:35.066Z,42.13
2018-02-22T10:35:02.715Z,45.17
2018-02-22T10:37:30.282Z,37.00
2018-02-22T10:39:57.871Z,40.23
2018-02-22T10:42:25.497Z,49.73
2018-02-22T10:44:53.078Z,62.27
2018-02-22T10:47:20.660Z,39.70
2018-02-22T10:49:48.391Z,50.80
2018-02-22T10:52:16.369Z,43.67
2018-02-22T10:54:44.029Z,25.27
2018-02-22T10:57:12.104Z,31.63
2018-02-22T10:59:39.682Z,34.20
2018-02-22T11:02:12.836Z,44.00
2018-02-22T11:04:40.425Z,44.13
2018-02-22T11:07:07.995Z,38.90
2018-02-22T11:09:35.810Z,39.87
2018-02-22T11:12:03.492Z,32.87
2018-02-22T11:14:31.148Z,31.80
2018-02-22T11:16:58.805Z,36.77
2018-02-22T11:19:26.506Z,48.33
2018-02-22T11:21:54.220Z,51.53
2018-02-22T11:24:22.010Z,61.47
2018-02-22T11:26:49.682Z,39.13
2018-02-22T11:29:17.251Z,33.17
2018-02-22T11:31:45.004Z,67.23
2018-02-22T11:34:12.584Z,44.80
2018-02-22T11:36:40.367Z,33.50
2018-02-22T11:39:08.184Z,30.90
2018-02-22T11:41:35.779Z,29.23
2018-02-22T11:44:03.379Z,31.33
2018-02-22T11:46:31.085Z,30.93
2018-02-22T11:48:59.026Z,27.20
2018-02-22T11:51:26.768Z,30.87
2018-02-22T11:53:54.559Z,39.53
2018-02-22T11:56:22.303Z,39.50
2018-02-22T11:58:49.867Z,36.57
2018-02-22T12:01:17.571Z,29.00
2018-02-22T12:03:50.108Z,32.50
2018-02-22T12:06:17.710Z,32.03
2018-02-22T12:08:45.335Z,30.33
2018-02-22T12:11:12.915Z,20.83
2018-02-22T12:13:40.593Z,9.37
2018-02-22T12:16:08.161Z,3.70
2018-02-22T12:18:35.817Z,4.50
2018-02-22T12:21:03.431Z,3.90
2018-02-22T12:23:31.013Z,5.03
2018-02-22T12:25:58.667Z,8.07
2018-02-22T12:28:26.359Z,8.47
2018-02-22T12:30:53.938Z,8.17
2018-02-22T12:33:21.540Z,9.50
2018-02-22T12:35:49.126Z,6.50
2018-02-22T12:38:16.699Z,6.23
2018-02-22T12:40:44.447Z,6.60
2018-02-22T12:43:11.995Z,6.87
2018-02-22T12:45:39.562Z,5.27
2018-02-22T12:48:07.169Z,4.17
2018-02-22T12:50:34.730Z,4.00
2018-02-22T12:53:02.432Z,3.93
2018-02-22T12:55:30.036Z,4.77
2018-02-22T12:57:57.669Z,5.23
2018-02-22T13:00:25.221Z,5.37
2018-02-22T13:02:52.828Z,4.60
2018-02-22T13:05:20.466Z,4.90
2018-02-22T13:07:48.049Z,4.30
2018-02-22T13:10:15.779Z,6.77
2018-02-22T13:12:43.356Z,8.50
2018-02-22T13:15:11.120Z,11.93
2018-02-22T13:17:38.766Z,6.70
2018-02-22T13:20:06.445Z,39.40
2018-02-22T13:22:34.037Z,18.60
2018-02-22T13:25:01.758Z,19.87
2018-02-22T13:27:29.530Z,16.57
2018-02-22T13:29:57.180Z,10.27
2018-02-22T13:32:24.858Z,10.90
2018-02-22T13:34:52.411Z,8.00
2018-02-22T13:40:20.887Z,10.37
2018-02-22T13:42:48.491Z,9.43
2018-02-22T13:45:28.630Z,8.03
2018-02-22T13:47:56.296Z,7.53
2018-02-22T13:53:28.666Z,7.30
2018-02-22T13:55:56.251Z,7.47
2018-02-22T13:58:23.829Z,6.77
2018-02-22T14:01:03.336Z,7.30
2018-02-22T14:03:30.919Z,8.43
2018-02-22T14:05:58.562Z,6.70
2018-02-22T14:08:38.323Z,6.87
2018-02-22T14:11:05.980Z,9.00
2018-02-22T14:13:33.719Z,11.53
2018-02-22T14:16:01.325Z,9.53
2018-02-22T14:18:28.888Z,7.63
2018-02-22T14:20:56.455Z,8.30
2018-02-22T14:23:24.060Z,8.23
2018-02-22T14:25:51.625Z,6.97
2018-02-22T14:28:19.445Z,6.67
2018-02-22T14:30:47.275Z,8.97
2018-02-22T14:33:14.851Z,52.83
2018-02-22T14:35:42.603Z,9.00
2018-02-22T14:38:10.204Z,8.20
2018-02-22T14:40:37.770Z,7.33
2018-02-22T14:43:05.344Z,7.40
2018-02-22T14:45:33.356Z,7.40
2018-02-22T14:48:00.999Z,8.80
2018-02-22T14:50:28.569Z,8.70
2018-02-22T14:52:56.290Z,8.17
2018-02-22T14:55:24.100Z,7.07
2018-02-22T14:57:51.666Z,7.40
2018-02-22T15:00:19.265Z,7.73
2018-02-22T15:02:46.960Z,9.83
2018-02-22T15:05:14.515Z,9.27
2018-02-22T15:07:42.193Z,8.67
2018-02-22T15:10:09.739Z,8.33
2018-02-22T15:12:37.311Z,8.77
2018-02-22T15:15:04.896Z,7.77
2018-02-22T15:17:32.532Z,9.60
2018-02-22T15:20:00.098Z,8.73
2018-02-22T15:22:27.873Z,10.50
2018-02-22T15:24:55.437Z,9.50
2018-02-22T15:27:23.003Z,9.90
2018-02-22T15:29:50.594Z,8.37
2018-02-22T15:32:18.158Z,9.33
2018-02-22T15:34:45.723Z,11.60
2018-02-22T15:37:13.317Z,10.50
2018-02-22T15:39:41.093Z,8.70
2018-02-22T15:42:08.659Z,10.10
2018-02-22T15:44:36.270Z,10.10
2018-02-22T15:47:03.892Z,11.73
2018-02-22T15:49:31.521Z,8.97
2018-02-22T15:51:59.298Z,8.83
2018-02-22T15:54:26.970Z,11.97
2018-02-22T15:56:54.527Z,11.17
2018-02-22T15:59:22.288Z,10.20
2018-02-22T16:01:49.858Z,10.73
2018-02-22T16:04:17.522Z,11.37
2018-02-22T16:06:45.288Z,11.27
2018-02-22T16:09:12.927Z,10.37
2018-02-22T16:11:40.486Z,12.00
2018-02-22T16:14:08.276Z,11.50
2018-02-22T16:16:36.008Z,10.77
2018-02-22T16:19:03.659Z,11.40
2018-02-22T16:21:31.286Z,10.17
2018-02-22T16:23:58.845Z,12.03
2018-02-22T16:26:26.582Z,12.77
2018-02-22T16:28:54.213Z,10.20
2018-02-22T16:31:21.785Z,17.23
2018-02-22T16:33:49.353Z,11.80
2018-02-22T16:36:17.029Z,16.03
2018-02-22T16:38:44.611Z,13.70
2018-02-22T16:41:12.167Z,14.07
2018-02-22T16:43:39.751Z,13.50
2018-02-22T16:46:07.295Z,14.30
2018-02-22T16:48:34.863Z,15.40
2018-02-22T16:51:02.472Z,14.40
2018-02-22T16:53:30.239Z,12.40
2018-02-22T16:55:57.899Z,35.70
2018-02-22T16:58:25.509Z,14.87
2018-02-22T17:00:53.096Z,12.13
2018-02-22T17:03:20.679Z,14.17
2018-02-22T17:05:48.266Z,14.57
2018-02-22T17:08:15.837Z,15.07
2018-02-22T17:10:43.389Z,13.77
2018-02-22T17:13:10.996Z,14.60
2018-02-22T17:15:38.583Z,15.10
2018-02-22T17:18:06.145Z,14.60
2018-02-22T17:20:33.911Z,15.53
2018-02-22T17:23:01.589Z,15.13
2018-02-22T17:25:28.629Z,15.90
2018-02-22T17:28:02.022Z,17.10
2018-02-22T17:30:35.224Z,14.43
2018-02-22T17:33:02.927Z,13.83
2018-02-22T17:35:35.945Z,14.07
2018-02-22T17:41:11.937Z,13.30
2018-02-22T17:43:39.817Z,15.30
2018-02-22T17:46:07.437Z,15.30
2018-02-22T17:48:35.074Z,17.57
2018-02-22T17:51:02.893Z,16.20
2018-02-22T17:53:30.731Z,15.55
2018-02-22T17:55:58.363Z,15.27
2018-02-22T17:58:26.009Z,15.43
2018-02-22T18:00:56.223Z,14.00
2018-02-22T18:03:23.850Z,14.67
2018-02-22T18:05:51.544Z,15.33
2018-02-22T18:08:19.190Z,17.33
2018-02-22T18:10:46.809Z,14.00
2018-02-22T18:13:14.396Z,14.27
2018-02-22T18:15:42.009Z,14.20
2018-02-22T18:18:09.721Z,14.67
2018-02-22T18:20:37.381Z,14.90
2018-02-22T18:23:05.003Z,16.20
2018-02-22T18:25:32.632Z,18.02
2018-02-22T18:28:00.293Z,16.90
2018-02-22T18:30:27.942Z,15.20
2018-02-22T18:32:55.507Z,16.70
2018-02-22T18:35:23.107Z,18.77
2018-02-22T18:37:56.377Z,14.00
2018-02-22T18:40:29.533Z,13.10
2018-02-22T18:42:57.259Z,15.73
2018-02-22T18:45:24.895Z,15.47
2018-02-22T18:47:52.539Z,14.03
2018-02-22T18:50:20.121Z,14.30
2018-02-22T18:52:47.694Z,17.15
2018-02-22T18:55:15.283Z,18.20
2018-02-22T18:57:42.872Z,14.93
2018-02-22T19:00:10.430Z,14.43
2018-02-22T19:02:38.027Z,14.17
2018-02-22T19:05:05.654Z,15.67
2018-02-22T19:07:33.206Z,13.73
2018-02-22T19:10:00.799Z,13.90
2018-02-22T19:12:28.382Z,13.03
2018-02-22T19:14:56.118Z,16.70
2018-02-22T19:17:23.760Z,13.77
2018-02-22T19:19:51.465Z,15.17
2018-02-22T19:22:19.075Z,13.40
2018-02-22T19:24:46.734Z,13.97
2018-02-22T19:27:14.309Z,20.17
2018-02-22T19:29:41.893Z,15.93
2018-02-22T19:32:09.531Z,9.93
2018-02-22T19:34:37.112Z,13.60
2018-02-22T19:37:04.657Z,9.53
2018-02-22T19:39:32.251Z,8.47
2018-02-22T19:41:59.813Z,10.27
2018-02-22T19:44:27.411Z,10.48
2018-02-22T19:46:55.101Z,13.10
2018-02-22T19:49:22.666Z,16.10
2018-02-22T19:51:50.441Z,15.60
2018-02-22T19:54:18.096Z,16.47
2018-02-22T19:56:45.675Z,16.10
2018-02-22T19:59:13.255Z,15.90
2018-02-22T20:01:40.862Z,16.20
2018-02-22T20:04:08.551Z,13.13
2018-02-22T20:06:36.115Z,13.37
2018-02-22T20:09:03.791Z,14.40
2018-02-22T20:11:31.540Z,18.10
2018-02-22T20:13:59.132Z,16.60
2018-02-22T20:16:26.775Z,14.67
2018-02-22T20:18:54.333Z,16.63
2018-02-22T20:21:21.987Z,15.67
2018-02-22T20:23:49.646Z,15.10
2018-02-22T20:26:18.175Z,15.70
2018-02-22T20:28:45.968Z,18.03
2018-02-22T20:31:13.511Z,17.40
2018-02-22T20:33:41.056Z,15.20
2018-02-22T20:36:08.682Z,18.27
2018-02-22T20:38:36.412Z,18.90
2018-02-22T20:41:04.000Z,18.53
2018-02-22T20:43:31.629Z,39.17
2018-02-22T20:45:59.230Z,26.67
2018-02-22T20:48:26.856Z,19.00
2018-02-22T20:51:04.390Z,18.37
2018-02-22T20:53:33.869Z,17.13
2018-02-22T20:56:01.439Z,17.03
2018-02-22T20:58:35.781Z,15.20
2018-02-22T21:01:03.336Z,15.90
2018-02-22T21:03:40.903Z,16.07
2018-02-22T21:06:08.626Z,17.03
2018-02-22T21:08:36.215Z,16.37
2018-02-22T21:11:03.830Z,13.27
2018-02-22T21:13:31.393Z,14.53
2018-02-22T21:15:58.972Z,15.63
2018-02-22T21:18:26.869Z,13.50
2018-02-22T21:20:54.438Z,13.53
2018-02-22T21:23:22.066Z,14.37
2018-02-22T21:25:49.658Z,14.87
2018-02-22T21:28:17.250Z,14.37
2018-02-22T21:30:44.966Z,13.47
2018-02-22T21:33:12.636Z,13.20
2018-02-22T21:35:40.214Z,14.97
2018-02-22T21:38:07.779Z,16.30
2018-02-22T21:40:35.601Z,14.20
2018-02-22T21:43:03.182Z,15.07
2018-02-22T21:45:30.763Z,16.33
2018-02-22T21:47:58.381Z,12.97
2018-02-22T21:50:26.106Z,14.80
2018-02-22T21:52:53.681Z,14.80
2018-02-22T21:55:21.380Z,14.03
2018-02-22T21:57:49.031Z,14.40
2018-02-22T22:00:16.610Z,14.63
2018-02-22T22:02:44.215Z,14.73
2018-02-22T22:05:11.780Z,13.70
2018-02-22T22:07:39.363Z,15.33
2018-02-22T22:10:06.956Z,15.90
2018-02-22T22:12:34.600Z,15.77
2018-02-22T22:15:02.157Z,15.43
2018-02-22T22:17:29.933Z,14.70
2018-02-22T22:19:57.520Z,16.70
2018-02-22T22:22:25.085Z,15.60
2018-02-22T22:24:52.691Z,15.67
2018-02-22T22:27:20.368Z,16.60
2018-02-22T22:29:47.946Z,16.93
2018-02-22T22:32:15.559Z,15.97
2018-02-22T22:34:43.183Z,16.47
2018-02-22T22:37:11.047Z,16.10
2018-02-22T22:39:38.645Z,17.67
2018-02-22T22:42:06.205Z,18.27
2018-02-22T22:44:33.809Z,14.40
2018-02-22T22:47:01.412Z,16.00
2018-02-22T22:49:29.046Z,15.50
2018-02-22T22:51:56.614Z,16.60
2018-02-22T22:54:24.224Z,16.50
2018-02-22T22:56:51.906Z,14.60
2018-02-22T22:59:19.493Z,16.93
2018-02-22T23:01:47.112Z,15.33
2018-02-22T23:04:15.114Z,15.30
2018-02-22T23:06:42.693Z,15.90
2018-02-22T23:09:10.419Z,20.77
2018-02-22T23:11:38.003Z,18.17
2018-02-22T23:14:05.963Z,18.83
2018-02-22T23:16:33.600Z,19.33
2018-02-22T23:19:01.291Z,20.60
2018-02-22T23:21:28.925Z,17.83
2018-02-22T23:23:56.531Z,19.70
2018-02-22T23:26:24.107Z,18.40
2018-02-22T23:28:51.676Z,18.77
2018-02-22T23:31:19.387Z,17.93
2018-02-22T23:33:47.011Z,20.57
2018-02-22T23:36:14.615Z,18.90
2018-02-22T23:38:42.364Z,20.77
2018-02-22T23:44:20.676Z,17.70
2018-02-22T23:46:48.285Z,17.47
2018-02-22T23:49:15.854Z,17.67
2018-02-22T23:51:43.466Z,15.37
2018-02-22T23:54:11.068Z,16.87
2018-02-22T23:56:38.690Z,17.60
2018-02-22T23:59:06.346Z,15.50
